KMIV

Millville Municipal Airport

Millville, New Jersey, USA
METAR KMIV 172054Z AUTO 13008KT 10SM OVC070 04/M02 A3023 RMK AO2 PRESFR SLP236 T00441017 58028
Observed Flight Rules
Feb-17 @ 20:54 UTC (37 minutes ago) Visual Flight Rules
Wind Visibility Clouds
130° at 8 knots 10 miles
  • Overcast at 7,000' AGL
Temperatures Readings
Current 4°C / 39°F
Dewpoint -2°C / 28°F
Humidity 65%
Altimeter 30.23" Hg
Pressure 1023.6 hPa
Elevation 23
METAR KMIV 172054Z AUTO 13008KT 10SM OVC070 04/M02 A3023 RMK AO2 PRESFR SLP236 T00441017 58028
Observed Flight Rules
Feb-17 @ 20:54 UTC
(37 minutes ago)
VFR
Wind Visibility
130° at 8 knots 10 miles
Clouds
  • Overcast at 7,000' AGL
Temperature Dewpoint
4°C / 39°F -2°C / 28°F
Humidity Altimeter Pressure
65% 30.23" Hg 1023.6 hPa